Time;durP1;ratioP1;P1;durP2;ratioP2;P2;SDS_P1;SDS_P2;PMS_P1;PMS_P2;Temp;Humidity;BMP_temperature;BMP_pressure;BME280_temperature;BME280_humidity;BME280_pressure;Samples;Min_cycle;Max_cycle;Signal;HPM_P1;HPM_P2
2022/03/30 00:00:17;;;;;;;27.32;14.60;;;;;;;;;;1716706;83;21112;-70
2022/03/30 00:02:44;;;;;;;24.55;13.68;;;;;;;;;;1716889;83;21546;-70
2022/03/30 00:05:10;;;;;;;25.82;14.07;;;;;;;;;;1716604;83;21691;-70
2022/03/30 00:07:38;;;;;;;27.93;15.00;;;;;;;;;;1716537;83;21129;-70
2022/03/30 00:10:05;;;;;;;29.42;14.70;;;;;;;;;;1720719;83;21028;-70
2022/03/30 00:12:33;;;;;;;35.00;17.90;;;;;;;;;;1729581;83;21076;-70
2022/03/30 00:14:59;;;;;;;38.85;18.27;;;;;;;;;;1729682;83;21055;-70
2022/03/30 00:17:26;;;;;;;38.98;19.75;;;;;;;;;;1729491;83;21108;-70
2022/03/30 00:19:52;;;;;;;37.08;18.60;;;;;;;;;;1729718;83;21115;-70
2022/03/30 00:22:18;;;;;;;27.50;16.12;;;;;;;;;;1729248;83;21028;-70
2022/03/30 00:24:46;;;;;;;36.03;18.02;;;;;;;;;;1729613;83;21156;-70
2022/03/30 00:27:13;;;;;;;34.53;18.55;;;;;;;;;;1729380;82;21080;-70
2022/03/30 00:29:39;;;;;;;36.53;17.25;;;;;;;;;;1729738;83;21028;-70
2022/03/30 00:32:07;;;;;;;34.23;18.10;;;;;;;;;;1729416;82;21038;-70
2022/03/30 00:34:33;;;;;;;35.80;18.15;;;;;;;;;;1729776;82;21071;-70
2022/03/30 00:37:01;;;;;;;37.73;17.80;;;;;;;;;;1729658;82;21072;-70
2022/03/30 00:39:27;;;;;;;34.48;17.32;;;;;;;;;;1729634;82;21041;-70
2022/03/30 00:41:53;;;;;;;32.63;17.40;;;;;;;;;;1729962;82;21052;-70
2022/03/30 00:44:20;;;;;;;33.25;17.65;;;;;;;;;;1729684;83;21104;-70
2022/03/30 00:46:47;;;;;;;31.82;16.45;;;;;;;;;;1729860;82;21084;-70
2022/03/30 00:49:13;;;;;;;33.23;17.45;;;;;;;;;;1729725;83;21056;-70
2022/03/30 00:51:39;;;;;;;35.92;18.57;;;;;;;;;;1729795;81;21068;-70
2022/03/30 00:54:06;;;;;;;32.28;16.90;;;;;;;;;;1729646;83;21064;-70
2022/03/30 00:56:32;;;;;;;35.48;18.77;;;;;;;;;;1730032;82;21005;-70
2022/03/30 00:59:02;;;;;;;35.58;18.90;;;;;;;;;;1729560;82;21108;-70
2022/03/30 01:04:19;;;;;;;33.58;18.55;;;;;;;;;;1701233;79;21135;-70
2022/03/30 01:06:47;;;;;;;33.42;18.00;;;;;;;;;;1681168;84;21587;-70
2022/03/30 01:09:14;;;;;;;31.57;16.97;;;;;;;;;;1671304;86;21107;-70
2022/03/30 01:11:40;;;;;;;31.40;16.82;;;;;;;;;;1671178;86;21126;-71
2022/03/30 01:14:08;;;;;;;29.52;16.37;;;;;;;;;;1671168;86;21052;-70
2022/03/30 01:16:35;;;;;;;37.00;19.17;;;;;;;;;;1671484;86;21059;-70
2022/03/30 01:19:08;;;;;;;33.38;18.37;;;;;;;;;;1671653;86;21103;-70
2022/03/30 01:21:36;;;;;;;34.55;16.70;;;;;;;;;;1671619;86;21928;-71
2022/03/30 01:24:03;;;;;;;33.75;16.17;;;;;;;;;;1671281;86;21091;-70
2022/03/30 01:26:30;;;;;;;33.08;16.32;;;;;;;;;;1671562;86;21112;-70
2022/03/30 01:28:57;;;;;;;30.90;17.20;;;;;;;;;;1671195;86;21075;-70
2022/03/30 01:34:08;;;;;;;31.82;16.27;;;;;;;;;;1671383;86;21163;-70
2022/03/30 01:36:38;;;;;;;27.93;15.15;;;;;;;;;;1671545;86;21515;-70
2022/03/30 01:39:05;;;;;;;30.00;17.20;;;;;;;;;;1671312;86;21109;-71
2022/03/30 01:41:33;;;;;;;30.92;15.90;;;;;;;;;;1671305;86;21048;-70
2022/03/30 01:43:59;;;;;;;30.00;14.80;;;;;;;;;;1671146;86;21064;-70
2022/03/30 01:46:25;;;;;;;28.23;15.70;;;;;;;;;;1671133;86;21189;-70
2022/03/30 01:48:51;;;;;;;28.02;14.38;;;;;;;;;;1671301;86;21090;-71
2022/03/30 01:51:18;;;;;;;25.02;13.68;;;;;;;;;;1671290;86;21139;-71
2022/03/30 01:53:44;;;;;;;21.20;11.78;;;;;;;;;;1671442;86;21116;-69
2022/03/30 01:56:11;;;;;;;21.00;13.00;;;;;;;;;;1652210;86;21068;-70
2022/03/30 01:58:37;;;;;;;23.22;12.50;;;;;;;;;;1652199;87;21076;-70
2022/03/30 02:01:03;;;;;;;18.80;11.88;;;;;;;;;;1652121;87;21069;-70
2022/03/30 02:03:30;;;;;;;20.17;11.53;;;;;;;;;;1656765;85;21168;-69
2022/03/30 02:05:56;;;;;;;23.73;12.00;;;;;;;;;;1702979;84;21086;-70
2022/03/30 02:08:23;;;;;;;21.48;12.53;;;;;;;;;;1702751;84;21028;-70
2022/03/30 02:10:50;;;;;;;21.33;11.55;;;;;;;;;;1702660;84;21083;-70
2022/03/30 02:13:16;;;;;;;22.20;11.97;;;;;;;;;;1702988;84;21013;-70
2022/03/30 02:15:43;;;;;;;20.60;11.90;;;;;;;;;;1702727;84;21052;-69
2022/03/30 02:18:10;;;;;;;20.85;11.68;;;;;;;;;;1703113;84;21563;-71
2022/03/30 02:20:36;;;;;;;24.07;12.05;;;;;;;;;;1702962;84;21020;-71
2022/03/30 02:23:02;;;;;;;21.48;11.73;;;;;;;;;;1702884;84;21643;-70
2022/03/30 02:25:28;;;;;;;18.62;11.53;;;;;;;;;;1703086;84;21527;-70
2022/03/30 02:27:55;;;;;;;27.65;14.95;;;;;;;;;;1702962;84;21012;-71
2022/03/30 02:30:21;;;;;;;28.47;13.95;;;;;;;;;;1702847;84;21582;-70
2022/03/30 02:32:48;;;;;;;20.00;11.53;;;;;;;;;;1702816;84;21088;-72
2022/03/30 02:35:14;;;;;;;23.07;13.05;;;;;;;;;;1702856;84;21083;-72
2022/03/30 02:37:41;;;;;;;20.75;11.45;;;;;;;;;;1702848;84;21052;-71
2022/03/30 02:40:08;;;;;;;24.43;12.78;;;;;;;;;;1703057;84;21024;-71
2022/03/30 02:42:33;;;;;;;19.50;11.05;;;;;;;;;;1702997;84;21098;-71
2022/03/30 02:45:01;;;;;;;21.30;13.25;;;;;;;;;;1702943;84;21067;-71
2022/03/30 02:50:12;;;;;;;20.12;12.20;;;;;;;;;;1703028;84;21079;-71
2022/03/30 02:52:38;;;;;;;21.20;11.60;;;;;;;;;;1702682;84;21039;-71
2022/03/30 02:55:06;;;;;;;19.23;11.20;;;;;;;;;;1702942;84;21052;-71
2022/03/30 02:57:32;;;;;;;21.02;11.90;;;;;;;;;;1702998;84;21040;-71
2022/03/30 02:59:59;;;;;;;18.82;12.05;;;;;;;;;;1702925;84;21013;-71
2022/03/30 03:02:26;;;;;;;19.80;10.68;;;;;;;;;;1703097;84;21044;-71
2022/03/30 03:04:54;;;;;;;18.98;10.95;;;;;;;;;;1702629;83;21183;-71
2022/03/30 03:07:20;;;;;;;25.00;13.95;;;;;;;;;;1702886;84;21212;-71
2022/03/30 03:09:48;;;;;;;21.77;12.40;;;;;;;;;;1702721;84;21167;-71
2022/03/30 03:12:14;;;;;;;20.12;11.75;;;;;;;;;;1703043;84;21063;-71
2022/03/30 03:14:41;;;;;;;23.42;12.28;;;;;;;;;;1702904;84;21091;-71
2022/03/30 03:17:07;;;;;;;22.20;12.93;;;;;;;;;;1703009;84;21112;-71
2022/03/30 03:19:35;;;;;;;20.00;12.45;;;;;;;;;;1702664;84;21547;-71
2022/03/30 03:22:02;;;;;;;20.30;11.63;;;;;;;;;;1703078;84;21051;-71
2022/03/30 03:24:28;;;;;;;21.87;12.18;;;;;;;;;;1702530;84;21091;-71
2022/03/30 03:26:54;;;;;;;18.67;10.55;;;;;;;;;;1702991;84;21123;-71
2022/03/30 03:29:21;;;;;;;18.77;10.95;;;;;;;;;;1702571;84;21115;-71
2022/03/30 03:31:48;;;;;;;19.25;11.12;;;;;;;;;;1702908;84;21059;-71
2022/03/30 03:34:14;;;;;;;18.12;9.58;;;;;;;;;;1702701;84;21079;-71
2022/03/30 03:36:41;;;;;;;17.27;10.05;;;;;;;;;;1702913;84;21112;-71
2022/03/30 03:39:07;;;;;;;16.82;8.75;;;;;;;;;;1702720;84;21083;-71
2022/03/30 03:41:33;;;;;;;17.98;9.48;;;;;;;;;;1702668;84;21016;-71
2022/03/30 03:44:00;;;;;;;16.05;9.55;;;;;;;;;;1702963;84;21040;-70
2022/03/30 03:46:26;;;;;;;14.73;9.08;;;;;;;;;;1702770;84;21087;-70
2022/03/30 03:48:52;;;;;;;18.77;9.40;;;;;;;;;;1702922;84;21147;-71
2022/03/30 03:51:19;;;;;;;17.15;9.28;;;;;;;;;;1703013;84;21524;-71
2022/03/30 03:53:45;;;;;;;18.82;9.85;;;;;;;;;;1703057;84;21461;-71
2022/03/30 03:56:12;;;;;;;15.83;9.43;;;;;;;;;;1702717;84;21091;-71
2022/03/30 03:58:38;;;;;;;19.23;9.43;;;;;;;;;;1702851;84;21079;-70
2022/03/30 04:01:04;;;;;;;15.93;8.63;;;;;;;;;;1702687;84;21095;-71
2022/03/30 04:03:31;;;;;;;18.55;9.70;;;;;;;;;;1702855;83;21088;-70
2022/03/30 04:05:57;;;;;;;17.82;10.23;;;;;;;;;;1702601;84;21119;-71
2022/03/30 04:08:25;;;;;;;21.65;9.73;;;;;;;;;;1702650;84;21077;-71
2022/03/30 04:10:52;;;;;;;19.10;9.65;;;;;;;;;;1702897;84;21119;-71
2022/03/30 04:13:19;;;;;;;22.35;10.90;;;;;;;;;;1702842;84;21111;-71
2022/03/30 04:15:45;;;;;;;20.37;10.95;;;;;;;;;;1702637;84;21055;-71
2022/03/30 04:18:13;;;;;;;19.20;11.85;;;;;;;;;;1702746;84;21636;-71
2022/03/30 04:20:41;;;;;;;17.27;10.23;;;;;;;;;;1702985;84;21123;-71
2022/03/30 04:23:08;;;;;;;15.65;10.25;;;;;;;;;;1702888;84;20993;-70
2022/03/30 04:26:16;;;;;;;19.48;11.43;;;;;;;;;;1801954;79;22704;-70
2022/03/30 04:28:43;;;;;;;21.97;11.45;;;;;;;;;;1761702;81;21021;-72
2022/03/30 04:31:11;;;;;;;20.17;10.78;;;;;;;;;;1761753;81;21072;-72
2022/03/30 04:33:38;;;;;;;22.32;11.55;;;;;;;;;;1761533;81;21056;-72
2022/03/30 04:36:04;;;;;;;18.90;10.63;;;;;;;;;;1761813;81;21021;-72
2022/03/30 04:38:32;;;;;;;17.92;10.70;;;;;;;;;;1761806;81;21049;-71
2022/03/30 04:40:58;;;;;;;19.10;9.88;;;;;;;;;;1761741;81;21025;-71
2022/03/30 04:43:25;;;;;;;17.23;10.60;;;;;;;;;;1762082;81;21037;-70
2022/03/30 04:45:51;;;;;;;20.68;10.75;;;;;;;;;;1761532;81;21080;-70
2022/03/30 04:48:19;;;;;;;19.82;11.12;;;;;;;;;;1762227;81;21056;-70
2022/03/30 04:50:45;;;;;;;23.15;14.28;;;;;;;;;;1761767;81;21523;-70
2022/03/30 04:53:11;;;;;;;23.70;14.30;;;;;;;;;;1762052;81;21472;-70
2022/03/30 04:55:37;;;;;;;20.27;12.05;;;;;;;;;;1761584;81;21495;-70
2022/03/30 04:58:04;;;;;;;20.60;12.47;;;;;;;;;;1762110;81;21504;-71
2022/03/30 05:00:32;;;;;;;20.20;12.80;;;;;;;;;;1761675;81;21024;-71
2022/03/30 05:02:59;;;;;;;21.57;12.20;;;;;;;;;;1752844;81;21103;-71
2022/03/30 05:05:25;;;;;;;20.75;12.58;;;;;;;;;;1727961;83;21111;-70
2022/03/30 05:07:51;;;;;;;19.80;12.65;;;;;;;;;;1728153;83;21059;-70
2022/03/30 05:10:19;;;;;;;23.18;12.88;;;;;;;;;;1728184;83;21100;-70
2022/03/30 05:12:46;;;;;;;19.73;12.47;;;;;;;;;;1728073;83;21031;-71
2022/03/30 05:15:14;;;;;;;22.25;12.37;;;;;;;;;;1728056;83;21579;-71
2022/03/30 05:17:43;;;;;;;20.05;12.07;;;;;;;;;;1728162;83;21016;-71
2022/03/30 05:20:12;;;;;;;17.42;12.05;;;;;;;;;;1728193;83;21055;-71
2022/03/30 05:22:40;;;;;;;18.77;11.18;;;;;;;;;;1728033;83;21005;-70
2022/03/30 05:25:07;;;;;;;19.52;12.15;;;;;;;;;;1721636;83;21095;-70
2022/03/30 05:27:33;;;;;;;24.45;14.70;;;;;;;;;;1712822;84;20981;-70
2022/03/30 05:29:59;;;;;;;26.62;15.28;;;;;;;;;;1712838;84;22116;-70
2022/03/30 05:32:26;;;;;;;30.40;17.15;;;;;;;;;;1712719;83;21618;-71
2022/03/30 05:34:52;;;;;;;34.30;17.80;;;;;;;;;;1712719;84;21547;-70
2022/03/30 05:37:19;;;;;;;44.50;24.80;;;;;;;;;;1712368;84;21115;-71
2022/03/30 05:39:47;;;;;;;35.23;20.10;;;;;;;;;;1711949;84;21071;-71
2022/03/30 05:42:17;;;;;;;40.30;23.40;;;;;;;;;;1712356;84;21004;-71
2022/03/30 05:44:43;;;;;;;41.05;20.85;;;;;;;;;;1712217;84;21520;-69
2022/03/30 05:47:09;;;;;;;50.15;31.87;;;;;;;;;;1712805;84;21048;-70
2022/03/30 05:49:36;;;;;;;49.53;27.45;;;;;;;;;;1712413;83;21075;-72
2022/03/30 05:52:03;;;;;;;43.50;22.82;;;;;;;;;;1712495;84;21036;-71
2022/03/30 05:54:29;;;;;;;44.80;25.70;;;;;;;;;;1712216;83;21080;-71
2022/03/30 05:57:01;;;;;;;40.40;25.55;;;;;;;;;;1712571;84;21064;-71
2022/03/30 05:59:38;;;;;;;44.48;24.82;;;;;;;;;;1712409;84;21067;-70
2022/03/30 06:02:06;;;;;;;36.88;19.98;;;;;;;;;;1712643;83;21028;-71
2022/03/30 06:04:33;;;;;;;37.60;19.07;;;;;;;;;;1712096;82;21092;-71
2022/03/30 06:07:00;;;;;;;39.38;20.92;;;;;;;;;;1712663;83;21516;-71
2022/03/30 06:09:33;;;;;;;38.23;22.95;;;;;;;;;;1712146;84;21096;-71
2022/03/30 06:11:57;;;;;;;37.28;22.52;;;;;;;;;;1711940;84;21062;-70
2022/03/30 06:14:25;;;;;;;39.30;22.17;;;;;;;;;;1712287;83;21093;-71
2022/03/30 06:16:51;;;;;;;35.75;19.27;;;;;;;;;;1712353;84;21049;-70
2022/03/30 06:19:19;;;;;;;42.33;21.37;;;;;;;;;;1712143;83;21588;-71
2022/03/30 06:21:45;;;;;;;44.23;22.00;;;;;;;;;;1712223;83;21461;-71
2022/03/30 06:24:11;;;;;;;41.15;23.75;;;;;;;;;;1712281;84;21537;-71
2022/03/30 06:26:39;;;;;;;37.67;20.45;;;;;;;;;;1719313;83;21583;-71
2022/03/30 06:29:06;;;;;;;38.73;21.33;;;;;;;;;;1720156;83;20961;-71
2022/03/30 06:31:33;;;;;;;37.93;21.50;;;;;;;;;;1719882;83;21032;-70
2022/03/30 06:34:00;;;;;;;29.52;15.65;;;;;;;;;;1720002;83;22070;-70
2022/03/30 06:36:27;;;;;;;24.77;14.13;;;;;;;;;;1719739;83;21035;-71
2022/03/30 06:38:55;;;;;;;32.17;17.32;;;;;;;;;;1719792;83;21056;-71
2022/03/30 06:41:24;;;;;;;37.05;21.68;;;;;;;;;;1719888;83;21285;-71
2022/03/30 06:43:51;;;;;;;33.92;18.20;;;;;;;;;;1719746;83;21048;-70
2022/03/30 06:46:19;;;;;;;33.63;18.65;;;;;;;;;;1720045;83;21024;-70
2022/03/30 06:48:47;;;;;;;37.35;19.90;;;;;;;;;;1719579;83;21055;-70
2022/03/30 06:51:14;;;;;;;38.20;22.93;;;;;;;;;;1719968;83;21095;-70
2022/03/30 06:53:42;;;;;;;42.85;23.20;;;;;;;;;;1719754;83;21536;-70
2022/03/30 06:56:09;;;;;;;44.88;24.55;;;;;;;;;;1719981;83;20984;-70
2022/03/30 06:58:36;;;;;;;44.88;24.72;;;;;;;;;;1719822;83;21004;-70
2022/03/30 07:01:03;;;;;;;45.28;23.83;;;;;;;;;;1720006;83;21001;-70
2022/03/30 07:03:31;;;;;;;42.43;23.15;;;;;;;;;;1719577;82;21608;-70
2022/03/30 07:05:58;;;;;;;40.88;20.57;;;;;;;;;;1719849;83;21574;-71
2022/03/30 07:11:13;;;;;;;26.73;15.60;;;;;;;;;;1719958;83;21056;-72
2022/03/30 07:13:41;;;;;;;28.23;15.38;;;;;;;;;;1719873;83;21008;-71
2022/03/30 07:16:10;;;;;;;25.27;15.20;;;;;;;;;;1719848;83;21036;-72
2022/03/30 07:18:38;;;;;;;24.95;13.58;;;;;;;;;;1720063;83;21088;-72
2022/03/30 07:21:07;;;;;;;23.15;14.40;;;;;;;;;;1719727;83;21028;-71
2022/03/30 07:23:34;;;;;;;24.20;13.88;;;;;;;;;;1720071;83;21046;-71
2022/03/30 07:26:04;;;;;;;25.23;12.98;;;;;;;;;;1719779;83;21017;-71
2022/03/30 07:28:31;;;;;;;25.65;15.30;;;;;;;;;;1720097;83;21052;-72
2022/03/30 07:31:01;;;;;;;33.58;18.40;;;;;;;;;;1719980;83;21028;-71
2022/03/30 07:33:29;;;;;;;33.10;21.52;;;;;;;;;;1720043;83;20980;-70
2022/03/30 07:35:57;;;;;;;31.77;17.80;;;;;;;;;;1720154;83;21032;-70
2022/03/30 07:38:25;;;;;;;34.35;17.85;;;;;;;;;;1720115;83;21529;-71
2022/03/30 07:40:53;;;;;;;31.10;18.87;;;;;;;;;;1719975;83;21020;-70
2022/03/30 07:43:20;;;;;;;30.23;19.85;;;;;;;;;;1720027;83;21079;-70
2022/03/30 07:45:47;;;;;;;32.53;19.48;;;;;;;;;;1719837;83;20997;-71
2022/03/30 07:48:15;;;;;;;27.75;14.75;;;;;;;;;;1719918;83;21515;-71
2022/03/30 07:50:44;;;;;;;25.05;15.60;;;;;;;;;;1719943;83;20992;-71
2022/03/30 07:53:11;;;;;;;24.63;13.35;;;;;;;;;;1719985;83;21544;-71
2022/03/30 07:55:39;;;;;;;20.40;12.23;;;;;;;;;;1719888;83;21484;-70
2022/03/30 07:58:06;;;;;;;24.27;14.40;;;;;;;;;;1719951;83;21555;-71
2022/03/30 08:00:35;;;;;;;23.27;12.90;;;;;;;;;;1719772;83;21095;-71
2022/03/30 08:03:03;;;;;;;26.10;14.20;;;;;;;;;;1719891;82;21579;-71
2022/03/30 08:05:31;;;;;;;25.97;15.48;;;;;;;;;;1719940;83;21020;-71
2022/03/30 08:07:59;;;;;;;25.10;13.53;;;;;;;;;;1720065;83;20996;-71
2022/03/30 08:10:29;;;;;;;24.35;13.70;;;;;;;;;;1719653;83;21016;-71
2022/03/30 08:12:57;;;;;;;22.55;12.70;;;;;;;;;;1719934;83;21028;-71
2022/03/30 08:15:24;;;;;;;22.93;12.13;;;;;;;;;;1719865;83;21520;-71
2022/03/30 08:17:54;;;;;;;23.38;14.13;;;;;;;;;;1720232;83;21096;-70
2022/03/30 08:23:07;;;;;;;22.15;12.20;;;;;;;;;;1720396;83;21059;-72
2022/03/30 08:25:35;;;;;;;23.57;14.23;;;;;;;;;;1717621;83;21029;-71
2022/03/30 08:28:03;;;;;;;21.45;11.65;;;;;;;;;;1690859;84;21001;-71
2022/03/30 08:30:31;;;;;;;20.50;11.83;;;;;;;;;;1712168;83;21434;-72
2022/03/30 08:33:02;;;;;;;24.27;13.18;;;;;;;;;;1712362;83;21559;-71
2022/03/30 08:35:33;;;;;;;22.70;15.32;;;;;;;;;;1711934;83;21063;-71
2022/03/30 08:38:01;;;;;;;27.67;13.28;;;;;;;;;;1712310;83;21008;-71
2022/03/30 08:40:30;;;;;;;22.20;12.93;;;;;;;;;;1712036;84;21076;-71
2022/03/30 08:42:57;;;;;;;24.82;13.58;;;;;;;;;;1712236;83;21021;-70
2022/03/30 08:45:25;;;;;;;23.38;14.10;;;;;;;;;;1712109;84;21039;-70
2022/03/30 08:47:52;;;;;;;20.37;13.18;;;;;;;;;;1712169;84;20985;-71
2022/03/30 08:50:20;;;;;;;25.32;14.98;;;;;;;;;;1712301;84;21068;-70
2022/03/30 08:52:49;;;;;;;21.37;13.22;;;;;;;;;;1712124;83;21040;-70
2022/03/30 08:55:17;;;;;;;24.77;15.72;;;;;;;;;;1712397;83;21100;-70
2022/03/30 08:57:45;;;;;;;27.13;14.38;;;;;;;;;;1711985;84;21040;-70
2022/03/30 09:00:16;;;;;;;24.95;13.75;;;;;;;;;;1712326;83;21559;-70
2022/03/30 09:02:44;;;;;;;25.95;17.23;;;;;;;;;;1712116;82;21044;-71
2022/03/30 09:05:24;;;;;;;24.45;15.32;;;;;;;;;;1712251;83;21068;-71
2022/03/30 09:07:54;;;;;;;25.50;14.20;;;;;;;;;;1712212;83;21041;-71
2022/03/30 09:10:24;;;;;;;21.57;12.53;;;;;;;;;;1712290;83;20982;-71
2022/03/30 09:12:51;;;;;;;19.52;11.35;;;;;;;;;;1712514;83;21079;-71
2022/03/30 09:15:20;;;;;;;16.17;11.53;;;;;;;;;;1712517;84;21482;-71
2022/03/30 09:17:47;;;;;;;17.60;10.60;;;;;;;;;;1712395;83;21044;-70
2022/03/30 09:20:16;;;;;;;14.73;8.90;;;;;;;;;;1712410;84;21541;-71
2022/03/30 09:22:44;;;;;;;18.57;11.48;;;;;;;;;;1712525;83;20977;-70
2022/03/30 09:25:12;;;;;;;17.37;10.10;;;;;;;;;;1712416;83;21040;-71
2022/03/30 09:27:42;;;;;;;20.05;11.68;;;;;;;;;;1720167;83;21059;-71
2022/03/30 09:30:10;;;;;;;18.67;10.05;;;;;;;;;;1720149;83;21032;-71
2022/03/30 09:32:42;;;;;;;17.48;10.15;;;;;;;;;;1719411;83;21052;-70
2022/03/30 09:35:25;;;;;;;17.30;10.32;;;;;;;;;;1719986;83;21071;-70
2022/03/30 09:38:04;;;;;;;16.25;10.80;;;;;;;;;;1720021;83;21496;-70
2022/03/30 09:40:51;;;;;;;17.23;9.18;;;;;;;;;;1719861;83;21052;-70
2022/03/30 09:43:19;;;;;;;18.60;11.12;;;;;;;;;;1720054;83;20997;-70
2022/03/30 09:45:47;;;;;;;17.50;10.90;;;;;;;;;;1720056;83;21079;-71
2022/03/30 09:48:15;;;;;;;22.30;12.13;;;;;;;;;;1720062;83;21290;-71
2022/03/30 09:50:43;;;;;;;20.97;10.80;;;;;;;;;;1719980;83;22092;-71
2022/03/30 09:53:11;;;;;;;19.73;10.93;;;;;;;;;;1720053;83;22173;-72
2022/03/30 09:55:39;;;;;;;21.42;12.73;;;;;;;;;;1719997;83;21566;-71
2022/03/30 09:58:07;;;;;;;17.00;10.28;;;;;;;;;;1717981;83;21044;-71
2022/03/30 10:00:34;;;;;;;19.60;10.82;;;;;;;;;;1719980;83;21008;-71
2022/03/30 10:03:01;;;;;;;22.30;12.23;;;;;;;;;;1719748;82;21563;-71
2022/03/30 10:05:28;;;;;;;16.35;10.35;;;;;;;;;;1720049;83;22080;-71
2022/03/30 10:07:56;;;;;;;16.42;9.50;;;;;;;;;;1719927;83;21060;-72
2022/03/30 10:10:24;;;;;;;19.80;10.48;;;;;;;;;;1719918;83;21523;-70
2022/03/30 10:12:51;;;;;;;18.42;10.70;;;;;;;;;;1668665;83;21539;-71
2022/03/30 10:15:20;;;;;;;20.02;13.68;;;;;;;;;;1719898;83;21101;-71
2022/03/30 10:17:48;;;;;;;18.77;10.48;;;;;;;;;;1691759;83;21039;-71
2022/03/30 10:20:16;;;;;;;17.45;9.15;;;;;;;;;;1719986;83;21008;-72
2022/03/30 10:23:03;;;;;;;16.25;10.32;;;;;;;;;;1719984;83;21019;-69
2022/03/30 10:25:43;;;;;;;15.13;9.10;;;;;;;;;;1719516;83;21116;-71
2022/03/30 10:28:17;;;;;;;14.05;7.03;;;;;;;;;;1711263;83;21550;-70
2022/03/30 10:30:45;;;;;;;20.68;8.85;;;;;;;;;;1712414;83;21264;-71
2022/03/30 10:33:13;;;;;;;17.35;11.05;;;;;;;;;;1712506;83;21008;-71
2022/03/30 10:35:46;;;;;;;17.25;9.35;;;;;;;;;;1712309;83;21059;-71
2022/03/30 10:38:15;;;;;;;17.23;9.50;;;;;;;;;;1712399;84;20989;-70
2022/03/30 10:40:43;;;;;;;18.17;11.78;;;;;;;;;;1712258;84;21040;-70
2022/03/30 10:43:11;;;;;;;16.15;9.45;;;;;;;;;;1712424;84;20985;-70
2022/03/30 10:45:49;;;;;;;14.73;9.13;;;;;;;;;;1712063;83;21060;-69
2022/03/30 10:48:19;;;;;;;13.75;8.13;;;;;;;;;;1712598;83;21040;-70
2022/03/30 10:50:48;;;;;;;14.50;9.63;;;;;;;;;;1712229;84;21047;-70
2022/03/30 10:53:33;;;;;;;16.27;8.88;;;;;;;;;;1712588;83;21066;-69
2022/03/30 10:56:16;;;;;;;14.20;9.35;;;;;;;;;;1712707;84;21016;-70
2022/03/30 10:58:59;;;;;;;14.45;8.28;;;;;;;;;;1712071;84;21108;-71
2022/03/30 11:01:32;;;;;;;18.17;10.70;;;;;;;;;;1712382;84;21017;-70
2022/03/30 11:04:03;;;;;;;20.88;9.78;;;;;;;;;;1712401;82;21112;-70
2022/03/30 11:06:30;;;;;;;14.23;8.45;;;;;;;;;;1712212;84;21005;-70
2022/03/30 11:08:57;;;;;;;15.20;9.75;;;;;;;;;;1690901;84;21085;-70
2022/03/30 11:11:25;;;;;;;15.23;8.30;;;;;;;;;;1712289;83;21040;-71
2022/03/30 11:14:10;;;;;;;16.67;10.65;;;;;;;;;;1712196;84;21072;-70
2022/03/30 11:16:41;;;;;;;14.23;8.83;;;;;;;;;;1712221;84;21084;-71
2022/03/30 11:19:10;;;;;;;12.73;7.60;;;;;;;;;;1711672;84;21492;-71
2022/03/30 11:21:37;;;;;;;19.77;8.73;;;;;;;;;;1712362;84;21011;-71
2022/03/30 11:24:06;;;;;;;15.68;10.93;;;;;;;;;;1712287;84;21543;-70
2022/03/30 11:26:50;;;;;;;15.60;8.40;;;;;;;;;;1714747;83;21115;-69
2022/03/30 11:29:35;;;;;;;14.65;8.90;;;;;;;;;;1720066;83;21044;-70
2022/03/30 11:32:04;;;;;;;14.30;8.88;;;;;;;;;;1719929;83;21008;-71
2022/03/30 11:34:32;;;;;;;14.73;8.83;;;;;;;;;;1716253;83;21564;-71
2022/03/30 11:36:59;;;;;;;15.75;11.38;;;;;;;;;;1719932;83;21016;-71
2022/03/30 11:39:31;;;;;;;16.02;8.38;;;;;;;;;;1719868;83;21083;-71
2022/03/30 11:41:59;;;;;;;13.68;7.75;;;;;;;;;;1719825;83;21252;-72
2022/03/30 11:47:12;;;;;;;13.25;7.97;;;;;;;;;;1674641;83;20981;-71
2022/03/30 11:49:50;;;;;;;18.60;9.18;;;;;;;;;;1719583;83;21116;-71
2022/03/30 11:52:18;;;;;;;16.35;9.20;;;;;;;;;;1719910;83;21012;-70
2022/03/30 11:54:47;;;;;;;13.88;10.15;;;;;;;;;;1719881;83;21032;-70
2022/03/30 11:57:15;;;;;;;12.93;8.33;;;;;;;;;;1719987;83;20973;-70
2022/03/30 11:59:45;;;;;;;14.50;8.28;;;;;;;;;;1720072;83;20989;-70
2022/03/30 12:02:14;;;;;;;14.28;10.43;;;;;;;;;;1718802;82;21068;-70
2022/03/30 12:04:42;;;;;;;13.50;7.90;;;;;;;;;;1720056;83;21036;-72
2022/03/30 12:07:10;;;;;;;14.38;9.00;;;;;;;;;;1719946;83;21523;-72
2022/03/30 12:09:49;;;;;;;13.83;8.18;;;;;;;;;;1719694;83;21071;-69
2022/03/30 12:12:31;;;;;;;12.65;8.75;;;;;;;;;;1720040;83;21020;-70
2022/03/30 12:14:58;;;;;;;11.57;6.95;;;;;;;;;;1720107;83;21028;-70
2022/03/30 12:17:26;;;;;;;13.75;7.83;;;;;;;;;;1720024;83;21000;-71
2022/03/30 12:19:54;;;;;;;11.30;7.33;;;;;;;;;;1719928;83;21503;-71
2022/03/30 12:22:23;;;;;;;14.78;10.43;;;;;;;;;;1719977;83;21549;-71
2022/03/30 12:24:52;;;;;;;12.25;7.75;;;;;;;;;;1719781;83;21028;-71
2022/03/30 12:27:19;;;;;;;14.93;8.75;;;;;;;;;;1715622;83;21639;-71
2022/03/30 12:29:47;;;;;;;14.07;7.78;;;;;;;;;;1712289;83;21555;-71
2022/03/30 12:32:15;;;;;;;14.73;10.10;;;;;;;;;;1712373;84;21511;-71
2022/03/30 12:34:43;;;;;;;14.13;8.53;;;;;;;;;;1690652;84;21060;-71
2022/03/30 12:37:10;;;;;;;14.35;7.72;;;;;;;;;;1712208;83;21522;-71
2022/03/30 12:39:41;;;;;;;14.43;8.85;;;;;;;;;;1712238;83;21527;-71
2022/03/30 12:42:13;;;;;;;12.53;7.08;;;;;;;;;;1712052;84;21305;-71
2022/03/30 12:44:41;;;;;;;19.57;9.18;;;;;;;;;;1712304;83;21036;-72
2022/03/30 12:47:28;;;;;;;20.23;9.68;;;;;;;;;;1712218;83;21025;-71
2022/03/30 12:49:56;;;;;;;19.30;10.38;;;;;;;;;;1712409;84;21093;-72
2022/03/30 12:52:25;;;;;;;14.68;8.18;;;;;;;;;;1712391;84;20973;-71
2022/03/30 12:54:54;;;;;;;17.27;8.75;;;;;;;;;;1712233;84;20997;-71
2022/03/30 12:57:28;;;;;;;15.43;9.45;;;;;;;;;;1711991;84;21029;-71
2022/03/30 12:59:56;;;;;;;14.87;8.15;;;;;;;;;;1712430;84;21508;-71
2022/03/30 13:02:24;;;;;;;12.00;7.60;;;;;;;;;;1709484;82;21547;-69
2022/03/30 13:04:57;;;;;;;13.62;8.28;;;;;;;;;;1712470;83;21496;-70
2022/03/30 13:07:28;;;;;;;14.73;9.23;;;;;;;;;;1712320;84;21517;-70
2022/03/30 13:10:03;;;;;;;14.10;7.72;;;;;;;;;;1712345;83;21021;-70
2022/03/30 13:12:40;;;;;;;13.18;7.60;;;;;;;;;;1690797;84;21028;-70
2022/03/30 13:15:08;;;;;;;13.43;7.42;;;;;;;;;;1712486;84;21017;-71
2022/03/30 13:17:39;;;;;;;14.85;8.38;;;;;;;;;;1712015;83;21041;-70
2022/03/30 13:20:07;;;;;;;14.90;9.55;;;;;;;;;;1710139;84;21012;-71
2022/03/30 13:22:37;;;;;;;14.38;8.23;;;;;;;;;;1712158;83;21084;-71
2022/03/30 13:25:04;;;;;;;13.48;7.83;;;;;;;;;;1690814;84;21016;-70
2022/03/30 13:27:41;;;;;;;12.78;7.67;;;;;;;;;;1712936;83;21508;-71
2022/03/30 13:30:09;;;;;;;15.30;9.43;;;;;;;;;;1712252;83;21841;-71
2022/03/30 13:32:37;;;;;;;16.52;8.75;;;;;;;;;;1712409;83;21016;-71
2022/03/30 13:35:07;;;;;;;15.03;8.68;;;;;;;;;;1712152;83;21084;-71
2022/03/30 13:37:36;;;;;;;16.65;9.93;;;;;;;;;;1712541;84;21032;-71
2022/03/30 13:40:03;;;;;;;16.15;10.60;;;;;;;;;;1712518;84;21056;-71
2022/03/30 13:42:30;;;;;;;16.30;8.90;;;;;;;;;;1712417;84;21024;-71
2022/03/30 13:44:58;;;;;;;15.72;9.03;;;;;;;;;;1712318;83;21076;-70
2022/03/30 13:47:26;;;;;;;15.95;9.08;;;;;;;;;;1712285;84;21036;-71
2022/03/30 13:49:54;;;;;;;15.58;9.88;;;;;;;;;;1690802;84;21508;-71
2022/03/30 13:52:24;;;;;;;15.53;8.63;;;;;;;;;;1712256;84;20985;-72
2022/03/30 13:54:50;;;;;;;17.37;9.85;;;;;;;;;;1712371;84;21080;-71
2022/03/30 13:57:17;;;;;;;16.93;9.90;;;;;;;;;;1712194;84;21020;-71
2022/03/30 13:59:46;;;;;;;15.13;8.43;;;;;;;;;;1690856;84;21017;-71
2022/03/30 14:02:14;;;;;;;17.55;9.40;;;;;;;;;;1712191;82;21646;-72
2022/03/30 14:04:43;;;;;;;17.00;10.25;;;;;;;;;;1690857;84;21056;-72
2022/03/30 14:07:11;;;;;;;19.10;10.45;;;;;;;;;;1712321;84;20984;-72
2022/03/30 14:09:40;;;;;;;20.62;10.50;;;;;;;;;;1712375;84;21556;-71
2022/03/30 14:12:10;;;;;;;17.52;10.50;;;;;;;;;;1712336;84;20993;-71
2022/03/30 14:14:40;;;;;;;18.50;9.33;;;;;;;;;;1712402;84;21617;-70
2022/03/30 14:17:13;;;;;;;15.55;8.08;;;;;;;;;;1711437;84;21001;-71
2022/03/30 14:19:43;;;;;;;15.05;9.48;;;;;;;;;;1712420;83;21034;-70
2022/03/30 14:22:15;;;;;;;16.07;9.83;;;;;;;;;;1712377;83;21111;-71
2022/03/30 14:24:45;;;;;;;19.85;9.73;;;;;;;;;;1712436;84;21044;-71
2022/03/30 14:27:15;;;;;;;14.87;8.38;;;;;;;;;;1712315;84;21009;-71
2022/03/30 14:29:46;;;;;;;15.10;9.80;;;;;;;;;;1691116;84;21021;-71
2022/03/30 14:32:16;;;;;;;14.43;8.75;;;;;;;;;;1717058;83;21469;-71
2022/03/30 14:34:43;;;;;;;15.58;9.45;;;;;;;;;;1719901;83;21032;-71
2022/03/30 14:37:15;;;;;;;15.50;10.05;;;;;;;;;;1720185;83;21520;-71
2022/03/30 14:39:48;;;;;;;17.62;9.98;;;;;;;;;;1719685;83;21029;-71
2022/03/30 14:42:15;;;;;;;16.15;10.13;;;;;;;;;;1719995;83;21381;-71
2022/03/30 14:44:46;;;;;;;15.78;8.95;;;;;;;;;;1692012;83;21087;-71